Information Last Ob Photographs Meteogram Network Table Neighbors Monthly Summaries Observation History Wind Roses Custom Wind Roses Data Calendar Satellite Cloud Product Download Terminal Aerodome Forecast

17 April 2024 Observation History, [CLL] COLLEGE STATION, timezone: America/Chicago

Select Date: Time Order:

Show METARs   Show High Frequency MADIS

Previous Day
Time Wind
(mph)
Vis.
(mi.)
Sky Cond.
(100s ft)
Present Wx Temperature (ºF) Relative
Humidity
Pressure Snow
Depth
(in)
Precipitation (in.)
Air Dwpt Feels Like 6 hour altimeter
(in.)
sea level
(mb)
1 hr 3 hr 6 hr
Max.Min.
12:53 AMSSE 69 OVC012
757075 79 75 84% 29.921012.50
KCLL 170553Z AUTO 16005KT 9SM OVC012 24/21 A2992 RMK AO2 SLP125 T02390211 10261 20239 402890217 51010
1:53 AMSSE 79 OVC010
757175 87% 29.911012.20
KCLL 170653Z AUTO 15006KT 9SM OVC010 24/22 A2991 RMK AO2 SLP122 T02390217
2:30 AMSSE 58 OVC008
757175 87% 29.910
KCLL 170730Z AUTO 16004KT 8SM OVC008 24/22 A2991 RMK AO2 CIG 008V012 T02390217
2:53 AMSSE 68 OVC008
757175 87% 29.910120
KCLL 170753Z AUTO 15005KT 8SM OVC008 24/22 A2990 RMK AO2 CIG 007V010 SLP120 T02390217
3:53 AMSSE 69 OVC008
757175 87% 29.911012.20
KCLL 170853Z AUTO 16005KT 9SM OVC008 24/22 A2991 RMK AO2 SLP122 T02390217 55003
4:28 AMSE 68 SCT008
OVC018
747174 90% 29.90
KCLL 170928Z AUTO 13005KT 8SM SCT008 OVC018 23/22 A2990 RMK AO2 T02330217
4:44 AMCalm8 BKN008
OVC017
747274 93% 29.910
KCLL 170944Z AUTO 00000KT 8SM BKN008 OVC017 23/22 A2991 RMK AO2 CIG 005V009 T02330222
4:53 AMSE 58 BKN006
OVC017
747274 93% 29.911012.30
KCLL 170953Z AUTO 14004KT 8SM BKN006 OVC017 23/22 A2991 RMK AO2 CIG 005V009 SLP123 T02330222
5:53 AMCalm7 OVC004
757275 90% 29.931012.90
KCLL 171053Z AUTO 00000KT 7SM OVC004 24/22 A2993 RMK AO2 SLP129 T02390222
6:53 AMESE 54 OVC003
BR747274 75 74 93% 29.921012.70
KCLL 171153Z AUTO 12004KT 4SM BR OVC003 23/22 A2992 RMK AO2 SLP127 T02330222 10239 20233 50005
7:17 AMSE 34 SCT004
BKN010
OVC013
BR747374 97% 29.930
KCLL 171217Z AUTO 13003KT 4SM BR SCT004 BKN010 OVC013 23/23 A2993 RMK AO2 CIG 008V011 T02330228
7:37 AMESE 52.5 BKN009
OVC014
-RA BR747374 97% 29.94T
KCLL 171237Z AUTO 12004KT 2 1/2SM -RA BR BKN009 OVC014 23/23 A2994 RMK AO2 RAB26 CIG 006V011 P0000 T02330228
7:46 AMESE 53 BKN009
OVC014
-RA BR757375 94% 29.94T
KCLL 171246Z 12004KT 3SM -RA BR BKN009 OVC014 24/23 A2994 RMK AO2 RAB26 CIG 006V011 P0000 T02390228
7:53 AMESE 63 OVC009
BR747374 97% 29.941013.4T
KCLL 171253Z 12005KT 3SM BR OVC009 23/23 A2994 RMK AO2 RAB26E48 CIG 005V012 SLP134 P0000 T02330228
8:53 AMSSE 93 OVC005
BR757375 94% 29.951013.60
KCLL 171353Z 15008KT 3SM BR OVC005 24/23 A2995 RMK AO2 SLP136 T02390228
9:00 AMSSE 83.5 OVC005
BR % 29.95
KCLL 171400Z AUTO 16007KT 3SM BR OVC005 24/23 A2995 RMK T02400230 CIG 4V8 MADISHF
9:05 AMSSE 84 OVC005
BR % 29.95
KCLL 171405Z AUTO 16007KT 4SM BR OVC005 24/23 A2995 RMK T02400230 CIG 4V8 MADISHF
9:10 AMSSE 64 OVC005
BR % 29.95
KCLL 171410Z AUTO 15005KT 4SM BR OVC005 24/23 A2995 RMK T02400230 CIG 4V8 MADISHF
9:15 AMSSE 83.5 OVC005
BR % 29.95
KCLL 171415Z AUTO 15007KT 3SM BR OVC005 24/23 A2995 RMK T02400230 CIG 4V8 MADISHF
9:20 AMSSE 82.5 OVC005
-RA BR % 29.95
KCLL 171420Z AUTO 15007KT 2 1/2SM -RA BR OVC005 24/23 A2995 RMK T02400230 CIG 4V8 MADISHF
9:25 AMS 63 OVC005
-RA BR % 29.96
KCLL 171425Z AUTO 17005KT 3SM -RA BR OVC005 24/23 A2996 RMK T02400230 CIG 4V9 MADISHF
9:30 AMSSE 93 OVC005
BR % 29.96
KCLL 171430Z AUTO 15008KT 3SM BR OVC005 24/23 A2996 RMK T02400230 MADISHF
9:35 AMSSE 103 OVC005
BR % 29.96
KCLL 171435Z AUTO 15009KT 3SM BR OVC005 24/23 A2996 RMK T02400230 CIG 4V9 MADISHF
9:40 AMSSE 93 BKN005
OVC012
BR % 29.96
KCLL 171440Z AUTO 15008KT 3SM BR BKN005 OVC012 24/23 A2996 RMK T02400230 CIG 4V9 MADISHF
9:45 AMSE 93.5 BKN007
OVC012
BR % 29.96
KCLL 171445Z AUTO 14008KT 3SM BR BKN007 OVC012 24/23 A2996 RMK T02400230 CIG 5V9 MADISHF
9:50 AMSSE 83.5 BKN007
OVC012
BR % 29.97
KCLL 171450Z AUTO 15007KT 3SM BR BKN007 OVC012 24/23 A2997 RMK T02400230 CIG 5V9 MADISHF
9:53 AMSSE 74 BKN007
OVC012
BR757375 94% 29.971014.5TT
KCLL 171453Z 15006KT 4SM BR BKN007 OVC012 24/23 A2997 RMK AO2 RAB19E30 CIG 005V009 SLP145 P0000 60000 T02390228 53017
9:55 AMSE 83.5 BKN007
OVC012
BR % 29.97
KCLL 171455Z AUTO 14007KT 3SM BR BKN007 OVC012 24/23 A2997 RMK T02400230 CIG 5V9 MADISHF
10:00 AMSE 53 BKN007
OVC012
BR % 29.97
KCLL 171500Z AUTO 14004KT 3SM BR BKN007 OVC012 24/23 A2997 RMK T02400230 CIG 3V10 MADISHF
10:05 AMESE 63 BKN007
OVC012
BR % 29.97
KCLL 171505Z AUTO 12005KT 3SM BR BKN007 OVC012 24/23 A2997 RMK T02400230 CIG 3V11 MADISHF
10:10 AMESE 64 OVC005
BR % 29.98
KCLL 171510Z AUTO 12005KT 4SM BR OVC005 24/23 A2998 RMK T02400230 CIG 3V10 MADISHF
10:15 AMSE 64 OVC005
BR % 29.98
KCLL 171515Z AUTO 13005KT 4SM BR OVC005 24/23 A2998 RMK T02400230 CIG 3V10 MADISHF
10:20 AMSE 84 OVC005
BR % 29.98
KCLL 171520Z AUTO 14007KT 4SM BR OVC005 24/23 A2998 RMK T02400230 CIG 3V10 MADISHF
10:25 AMSSE 64 OVC005
BR % 29.98
KCLL 171525Z AUTO 15005KT 4SM BR OVC005 24/23 A2998 RMK T02400230 CIG 3V10 MADISHF
10:30 AMSSE 64 BKN005
OVC012
BR % 29.98
KCLL 171530Z AUTO 15005KT 4SM BR BKN005 OVC012 24/23 A2998 RMK T02400230 CIG 4V9 MADISHF
10:35 AMSSE 65 BKN007
OVC014
BR % 29.98
KCLL 171535Z AUTO 15005KT 5SM BR BKN007 OVC014 24/23 A2998 RMK T02400230 CIG 4V11 MADISHF
10:40 AMSE 55 SCT007
OVC014
BR % 29.98
KCLL 171540Z AUTO 13004KT 5SM BR SCT007 OVC014 24/23 A2998 RMK T02400230 MADISHF
10:45 AMSE 65 SCT007
BKN012
OVC017
BR % 29.98
KCLL 171545Z AUTO 13005KT 5SM BR SCT007 BKN012 OVC017 24/23 A2998 RMK T02400230 MADISHF
10:49 AMESE 76 SCT009
OVC017
BR757375 94% 29.980
KCLL 171549Z 12006KT 6SM BR SCT009 OVC017 24/23 A2998 RMK AO2
10:50 AMESE 66 SCT009
OVC017
BR % 29.98
KCLL 171550Z AUTO 12005KT 6SM BR SCT009 OVC017 24/23 A2998 RMK T02400230 MADISHF
10:53 AMESE 56 SCT009
OVC015
BR767376 90% 29.981014.60
KCLL 171553Z 11004KT 6SM BR SCT009 OVC015 24/23 A2998 RMK AO2 SLP146 T02440228
10:55 AMESE 66 SCT009
OVC015
BR % 29.98
KCLL 171555Z AUTO 11005KT 6SM BR SCT009 OVC015 24/23 A2998 RMK T02400230 MADISHF
11:00 AMSE 86 BKN008
OVC015
BR % 29.98
KCLL 171600Z AUTO 13007KT 6SM BR BKN008 OVC015 25/23 A2998 RMK T02500230 CIG 6V10 MADISHF
11:05 AMSE 97 BKN010
OVC015
% 29.98
KCLL 171605Z AUTO 14008KT 7SM BKN010 OVC015 26/23 A2998 RMK T02600230 CIG 7V12 MADISHF
11:06 AMSSE 97 BKN010
OVC015
787478 87% 29.970
KCLL 171606Z 15008KT 7SM BKN010 OVC015 26/23 A2997 RMK AO2 CIG 007V014 T02560233
11:10 AMSE 107 BKN010
BKN015
OVC039
% 29.97
KCLL 171610Z AUTO 14009KT 7SM BKN010 BKN015 OVC039 26/23 A2997 RMK T02600230 CIG 7V13 MADISHF
11:15 AMSSE 88 BKN010
BKN016
OVC039
% 29.97
KCLL 171615Z AUTO 15007KT 8SM BKN010 BKN016 OVC039 26/23 A2997 RMK T02600230 CIG 7V13 MADISHF
11:20 AMSE 88 BKN010
OVC039
% 29.98
KCLL 171620Z AUTO 13007KT 8SM BKN010 OVC039 26/23 A2998 RMK T02600230 CIG 7V13 MADISHF
11:25 AMSE 98 SCT010
OVC039
% 29.98
KCLL 171625Z AUTO 14008KT 8SM SCT010 OVC039 26/22 A2998 RMK T02600220 MADISHF
11:28 AMSSE 99 SCT010
OVC039
797279 79% 29.980
KCLL 171628Z 15008KT 9SM SCT010 OVC039 26/22 A2998 RMK AO2 T02610222
11:30 AMSSE 89 FEW010
OVC039
% 29.98
KCLL 171630Z AUTO 15007KT 9SM FEW010 OVC039 26/22 A2998 RMK T02600220 MADISHF
11:35 AMSSE 89 FEW010
OVC039
% 29.97
KCLL 171635Z AUTO 15007KT 9SM FEW010 OVC039 27/23 A2997 RMK T02700230 MADISHF
11:40 AMSE 129 FEW013
OVC039
% 29.97
KCLL 171640Z AUTO 14010KT 9SM FEW013 OVC039 26/22 A2997 RMK T02600220 MADISHF
11:45 AMSE 1010 SCT013
OVC039
% 29.97
KCLL 171645Z AUTO 14009KT 10SM SCT013 OVC039 27/22 A2997 RMK T02700220 MADISHF
11:50 AMSSE 1210 SCT015
BKN039
% 29.97
KCLL 171650Z AUTO 16010KT 10SM SCT015 BKN039 27/22 A2997 RMK T02700220 MADISHF
11:53 AMSSE 1210 BKN015
OVC038
807284 77% 29.971014.40
KCLL 171653Z 15010KT 10SM BKN015 OVC038 27/22 A2997 RMK AO2 SLP144 T02670222
12:00 PMS 1010 BKN015
BKN038
% 29.97
KCLL 171700Z AUTO 17009KT 10SM BKN015 BKN038 27/22 A2997 RMK T02700220 MADISHF
12:05 PMSSE 1010 BKN015
BKN038
% 29.96
KCLL 171705Z AUTO 16009KT 10SM BKN015 BKN038 27/22 A2996 RMK T02700220 MADISHF
12:10 PMSE 910 BKN015
BKN022
% 29.97
KCLL 171710Z AUTO 13008KT 10SM BKN015 BKN022 27/22 A2997 RMK T02700220 MADISHF
12:15 PMSSE 1010 BKN016
BKN022
% 29.96
KCLL 171715Z AUTO 16009KT 10SM BKN016 BKN022 27/22 A2996 RMK T02700220 MADISHF
12:20 PMSE 910 SCT016
SCT021
% 29.97
KCLL 171720Z AUTO 13008KT 10SM SCT016 SCT021 28/22 A2997 RMK T02800220 MADISHF
12:25 PMSSE 1310 SCT018
BKN026
% 29.97
KCLL 171725Z AUTO 15011KT 10SM SCT018 BKN026 27/22 A2997 RMK T02700220 MADISHF
12:30 PMSSE 1210 SCT018
SCT026
% 29.96
KCLL 171730Z AUTO 15010KT 10SM SCT018 SCT026 28/22 A2996 RMK T02800220 MADISHF
12:35 PMS 1210 SCT018
BKN026
% 29.96
KCLL 171735Z AUTO 18010KT 10SM SCT018 BKN026 27/22 A2996 RMK T02700220 MADISHF
12:40 PMS 1210 SCT021
BKN030
BKN037
% 29.96
KCLL 171740Z AUTO 18010KT 10SM SCT021 BKN030 BKN037 28/21 A2996 RMK T02800210 MADISHF
12:44 PMSSE 1310 SCT021
BKN037
817185 72% 29.960
KCLL 171744Z 16011KT 10SM SCT021 BKN037 27/22 A2996 RMK AO2 T02720217
12:45 PMSSE 1310 SCT021
BKN037
% 29.96
KCLL 171745Z AUTO 15011KT 10SM SCT021 BKN037 27/22 A2996 RMK T02700220 MADISHF
12:50 PMSE 1210 SCT021
BKN035
% 29.96
KCLL 171750Z AUTO 14010KT 10SM SCT021 BKN035 27/22 A2996 RMK T02700220 MADISHF
12:53 PMS 1010 FEW021
BKN035
827186 82 74 69% 29.971014.30
KCLL 171753Z 17009KT 10SM FEW021 BKN035 28/22 A2997 RMK AO2 SLP143 60000 T02780217 10278 20233 58004
1:00 PMS 1010 FEW021
BKN037
% 29.97
KCLL 171800Z AUTO 17009KT 10SM FEW021 BKN037 27/22 A2997 RMK T02700220 MADISHF
1:05 PMSSE 1010 FEW021
BKN037
% 29.97
KCLL 171805Z AUTO 16009KT 10SM FEW021 BKN037 27/22 A2997 RMK T02700220 MADISHF
1:10 PMSSE 810 FEW024
OVC039
% 29.97
KCLL 171810Z AUTO 16007KT 10SM FEW024 OVC039 27/22 A2997 RMK T02700220 MADISHF

The IEM API webservice that provided data to this page. For more details, see documentation.

Data Notes

  • For recent years, this page also optionally shows observations from the MADIS High Frequency METAR dataset. This dataset had a problem with temperatures detailed here.